sensor_id;sensor_type;location;lat;lon;timestamp;temperature;humidity
148;DHT22;142;50.652;12.216;2022-11-04T00:01:38;9.90;62.80
148;DHT22;142;50.652;12.216;2022-11-04T00:04:06;9.90;62.90
148;DHT22;142;50.652;12.216;2022-11-04T00:06:35;10.00;62.90
148;DHT22;142;50.652;12.216;2022-11-04T00:09:03;10.00;62.70
148;DHT22;142;50.652;12.216;2022-11-04T00:11:30;10.00;62.40
148;DHT22;142;50.652;12.216;2022-11-04T00:14:16;10.00;62.50
148;DHT22;142;50.652;12.216;2022-11-04T00:16:43;9.90;62.50
148;DHT22;142;50.652;12.216;2022-11-04T00:19:28;9.90;63.30
148;DHT22;142;50.652;12.216;2022-11-04T00:22:16;10.00;63.50
148;DHT22;142;50.652;12.216;2022-11-04T00:24:58;9.90;62.70
148;DHT22;142;50.652;12.216;2022-11-04T00:27:43;9.90;63.30
148;DHT22;142;50.652;12.216;2022-11-04T00:30:27;9.90;63.50
148;DHT22;142;50.652;12.216;2022-11-04T00:32:54;9.80;63.50
148;DHT22;142;50.652;12.216;2022-11-04T00:35:38;9.60;63.80
148;DHT22;142;50.652;12.216;2022-11-04T00:38:07;9.60;64.40
148;DHT22;142;50.652;12.216;2022-11-04T00:40:33;9.80;65.00
148;DHT22;142;50.652;12.216;2022-11-04T00:43:00;9.90;65.10
148;DHT22;142;50.652;12.216;2022-11-04T00:45:28;10.10;65.10
148;DHT22;142;50.652;12.216;2022-11-04T00:47:55;10.10;65.00
148;DHT22;142;50.652;12.216;2022-11-04T00:50:22;10.30;64.80
148;DHT22;142;50.652;12.216;2022-11-04T00:52:49;10.30;64.50
148;DHT22;142;50.652;12.216;2022-11-04T00:55:17;10.40;64.50
148;DHT22;142;50.652;12.216;2022-11-04T00:57:44;10.50;64.20
148;DHT22;142;50.652;12.216;2022-11-04T01:00:12;10.50;63.90
148;DHT22;142;50.652;12.216;2022-11-04T01:02:40;10.60;63.90
148;DHT22;142;50.652;12.216;2022-11-04T01:05:08;10.70;63.90
148;DHT22;142;50.652;12.216;2022-11-04T01:07:35;10.70;63.60
148;DHT22;142;50.652;12.216;2022-11-04T01:10:02;10.80;63.30
148;DHT22;142;50.652;12.216;2022-11-04T01:12:30;10.80;63.00
148;DHT22;142;50.652;12.216;2022-11-04T01:14:57;10.90;63.10
148;DHT22;142;50.652;12.216;2022-11-04T01:17:24;11.00;63.10
148;DHT22;142;50.652;12.216;2022-11-04T01:19:51;11.10;63.00
148;DHT22;142;50.652;12.216;2022-11-04T01:22:18;11.20;63.10
148;DHT22;142;50.652;12.216;2022-11-04T01:24:45;11.30;62.90
148;DHT22;142;50.652;12.216;2022-11-04T01:27:12;11.40;62.80
148;DHT22;142;50.652;12.216;2022-11-04T01:29:40;11.50;62.40
148;DHT22;142;50.652;12.216;2022-11-04T01:32:07;11.50;62.10
148;DHT22;142;50.652;12.216;2022-11-04T01:34:34;11.50;61.70
148;DHT22;142;50.652;12.216;2022-11-04T01:37:01;11.60;61.60
148;DHT22;142;50.652;12.216;2022-11-04T01:39:28;11.70;61.30
148;DHT22;142;50.652;12.216;2022-11-04T01:41:55;11.90;61.40
148;DHT22;142;50.652;12.216;2022-11-04T01:44:50;12.00;61.10
148;DHT22;142;50.652;12.216;2022-11-04T01:47:19;12.00;60.40
148;DHT22;142;50.652;12.216;2022-11-04T01:49:51;12.10;59.70
148;DHT22;142;50.652;12.216;2022-11-04T01:52:22;12.20;59.80
148;DHT22;142;50.652;12.216;2022-11-04T01:54:53;12.30;59.80
148;DHT22;142;50.652;12.216;2022-11-04T01:57:26;12.30;59.50
148;DHT22;142;50.652;12.216;2022-11-04T01:59:59;12.30;59.30
148;DHT22;142;50.652;12.216;2022-11-04T02:02:27;12.30;59.20
148;DHT22;142;50.652;12.216;2022-11-04T02:04:54;12.40;58.90
148;DHT22;142;50.652;12.216;2022-11-04T02:07:21;12.40;58.70
148;DHT22;142;50.652;12.216;2022-11-04T02:09:49;12.40;58.60
148;DHT22;142;50.652;12.216;2022-11-04T02:12:16;12.40;58.30
148;DHT22;142;50.652;12.216;2022-11-04T02:15:03;12.40;58.10
148;DHT22;142;50.652;12.216;2022-11-04T02:17:39;12.40;58.00
148;DHT22;142;50.652;12.216;2022-11-04T02:23:51;12.40;57.80
148;DHT22;142;50.652;12.216;2022-11-04T02:27:02;12.40;58.30
148;DHT22;142;50.652;12.216;2022-11-04T02:29:49;12.50;58.20
148;DHT22;142;50.652;12.216;2022-11-04T02:32:24;12.50;58.10
148;DHT22;142;50.652;12.216;2022-11-04T02:35:00;12.60;58.00
148;DHT22;142;50.652;12.216;2022-11-04T02:37:34;12.60;57.70
148;DHT22;142;50.652;12.216;2022-11-04T02:40:17;12.60;57.60
148;DHT22;142;50.652;12.216;2022-11-04T02:42:53;12.70;57.50
148;DHT22;142;50.652;12.216;2022-11-04T02:45:25;12.80;57.60
148;DHT22;142;50.652;12.216;2022-11-04T02:47:56;12.80;57.10
148;DHT22;142;50.652;12.216;2022-11-04T02:50:30;12.80;57.10
148;DHT22;142;50.652;12.216;2022-11-04T02:53:01;12.80;57.00
148;DHT22;142;50.652;12.216;2022-11-04T02:55:33;12.80;57.40
148;DHT22;142;50.652;12.216;2022-11-04T02:58:04;12.90;57.20
148;DHT22;142;50.652;12.216;2022-11-04T03:00:37;12.90;57.00
148;DHT22;142;50.652;12.216;2022-11-04T03:03:08;12.90;56.90
148;DHT22;142;50.652;12.216;2022-11-04T03:05:39;12.90;56.70
148;DHT22;142;50.652;12.216;2022-11-04T03:08:10;12.90;56.70
148;DHT22;142;50.652;12.216;2022-11-04T03:10:41;12.90;56.60
148;DHT22;142;50.652;12.216;2022-11-04T03:13:13;12.90;56.40
148;DHT22;142;50.652;12.216;2022-11-04T03:15:47;12.80;56.50
148;DHT22;142;50.652;12.216;2022-11-04T03:18:21;12.80;56.90
148;DHT22;142;50.652;12.216;2022-11-04T03:20:50;12.90;57.00
148;DHT22;142;50.652;12.216;2022-11-04T03:23:19;12.90;56.90
148;DHT22;142;50.652;12.216;2022-11-04T03:25:47;12.90;56.80
148;DHT22;142;50.652;12.216;2022-11-04T03:28:24;12.90;56.40
148;DHT22;142;50.652;12.216;2022-11-04T03:30:58;12.80;56.60
148;DHT22;142;50.652;12.216;2022-11-04T03:33:32;12.80;56.80
148;DHT22;142;50.652;12.216;2022-11-04T03:36:05;12.80;57.10
148;DHT22;142;50.652;12.216;2022-11-04T03:38:33;12.80;57.50
148;DHT22;142;50.652;12.216;2022-11-04T03:41:01;12.80;57.50
148;DHT22;142;50.652;12.216;2022-11-04T03:43:30;12.80;57.60
148;DHT22;142;50.652;12.216;2022-11-04T03:46:01;12.80;57.60
148;DHT22;142;50.652;12.216;2022-11-04T03:48:29;12.80;57.60
148;DHT22;142;50.652;12.216;2022-11-04T03:50:57;12.70;57.90
148;DHT22;142;50.652;12.216;2022-11-04T03:53:26;12.80;58.40
148;DHT22;142;50.652;12.216;2022-11-04T03:56:26;12.80;58.40
148;DHT22;142;50.652;12.216;2022-11-04T03:59:03;12.70;58.60
148;DHT22;142;50.652;12.216;2022-11-04T04:01:40;12.60;58.80
148;DHT22;142;50.652;12.216;2022-11-04T04:04:14;12.60;59.20
148;DHT22;142;50.652;12.216;2022-11-04T04:06:44;12.60;59.50
148;DHT22;142;50.652;12.216;2022-11-04T04:09:18;12.50;59.90
148;DHT22;142;50.652;12.216;2022-11-04T04:11:52;12.50;60.10
148;DHT22;142;50.652;12.216;2022-11-04T04:14:24;12.50;60.20
148;DHT22;142;50.652;12.216;2022-11-04T04:17:13;12.40;60.60
148;DHT22;142;50.652;12.216;2022-11-04T04:19:43;12.50;60.90
148;DHT22;142;50.652;12.216;2022-11-04T04:22:14;12.50;61.00
148;DHT22;142;50.652;12.216;2022-11-04T04:24:46;12.40;61.10
148;DHT22;142;50.652;12.216;2022-11-04T04:27:31;12.40;61.30
148;DHT22;142;50.652;12.216;2022-11-04T04:30:02;12.40;61.40
148;DHT22;142;50.652;12.216;2022-11-04T04:32:36;12.40;61.70
148;DHT22;142;50.652;12.216;2022-11-04T04:35:05;12.30;61.80
148;DHT22;142;50.652;12.216;2022-11-04T04:37:51;12.40;62.00
148;DHT22;142;50.652;12.216;2022-11-04T04:40:23;12.40;62.00
148;DHT22;142;50.652;12.216;2022-11-04T04:43:14;12.40;62.20
148;DHT22;142;50.652;12.216;2022-11-04T04:45:59;12.40;62.20
148;DHT22;142;50.652;12.216;2022-11-04T04:48:28;12.40;62.10
148;DHT22;142;50.652;12.216;2022-11-04T04:50:56;12.30;62.30
148;DHT22;142;50.652;12.216;2022-11-04T04:53:26;12.20;62.50
148;DHT22;142;50.652;12.216;2022-11-04T04:55:53;12.30;62.60
148;DHT22;142;50.652;12.216;2022-11-04T04:58:20;12.20;62.60
148;DHT22;142;50.652;12.216;2022-11-04T05:00:47;12.20;62.90
148;DHT22;142;50.652;12.216;2022-11-04T05:03:14;12.10;62.80
148;DHT22;142;50.652;12.216;2022-11-04T05:05:43;12.10;63.00
148;DHT22;142;50.652;12.216;2022-11-04T05:08:10;12.00;63.50
148;DHT22;142;50.652;12.216;2022-11-04T05:10:36;11.90;63.50
148;DHT22;142;50.652;12.216;2022-11-04T05:13:03;11.90;63.70
148;DHT22;142;50.652;12.216;2022-11-04T05:15:48;11.90;64.20
148;DHT22;142;50.652;12.216;2022-11-04T05:18:15;11.80;64.20
148;DHT22;142;50.652;12.216;2022-11-04T05:20:43;11.70;64.50
148;DHT22;142;50.652;12.216;2022-11-04T05:23:10;11.70;64.90
148;DHT22;142;50.652;12.216;2022-11-04T05:25:38;11.80;65.30
148;DHT22;142;50.652;12.216;2022-11-04T05:28:07;11.80;65.40
148;DHT22;142;50.652;12.216;2022-11-04T05:30:34;11.80;65.40
148;DHT22;142;50.652;12.216;2022-11-04T05:33:02;11.70;65.50
148;DHT22;142;50.652;12.216;2022-11-04T05:35:29;11.80;65.80
148;DHT22;142;50.652;12.216;2022-11-04T05:37:57;11.80;66.00
148;DHT22;142;50.652;12.216;2022-11-04T05:40:24;11.80;66.00
148;DHT22;142;50.652;12.216;2022-11-04T05:42:51;11.70;66.10
148;DHT22;142;50.652;12.216;2022-11-04T05:45:18;11.70;65.90
148;DHT22;142;50.652;12.216;2022-11-04T05:47:45;11.60;65.90
148;DHT22;142;50.652;12.216;2022-11-04T05:50:13;11.50;66.20
148;DHT22;142;50.652;12.216;2022-11-04T05:52:40;11.50;66.60
148;DHT22;142;50.652;12.216;2022-11-04T05:55:09;11.50;66.80
148;DHT22;142;50.652;12.216;2022-11-04T05:57:38;11.50;67.00
148;DHT22;142;50.652;12.216;2022-11-04T06:00:11;11.40;67.10
148;DHT22;142;50.652;12.216;2022-11-04T06:02:39;11.30;67.20
148;DHT22;142;50.652;12.216;2022-11-04T06:05:07;11.40;67.60
148;DHT22;142;50.652;12.216;2022-11-04T06:07:35;11.40;67.80
148;DHT22;142;50.652;12.216;2022-11-04T06:10:03;11.30;67.70
148;DHT22;142;50.652;12.216;2022-11-04T06:12:31;11.20;67.70
148;DHT22;142;50.652;12.216;2022-11-04T06:14:58;11.30;68.20
148;DHT22;142;50.652;12.216;2022-11-04T06:17:25;11.30;68.40
148;DHT22;142;50.652;12.216;2022-11-04T06:19:52;11.30;68.50
148;DHT22;142;50.652;12.216;2022-11-04T06:22:21;11.30;68.40
148;DHT22;142;50.652;12.216;2022-11-04T06:24:48;11.30;68.50
148;DHT22;142;50.652;12.216;2022-11-04T06:27:15;11.30;68.50
148;DHT22;142;50.652;12.216;2022-11-04T06:29:43;11.40;68.60
148;DHT22;142;50.652;12.216;2022-11-04T06:32:13;11.40;68.60
148;DHT22;142;50.652;12.216;2022-11-04T06:34:40;11.40;68.50
148;DHT22;142;50.652;12.216;2022-11-04T06:37:08;11.40;68.50
148;DHT22;142;50.652;12.216;2022-11-04T06:39:36;11.40;68.50
148;DHT22;142;50.652;12.216;2022-11-04T06:42:03;11.50;68.60
148;DHT22;142;50.652;12.216;2022-11-04T06:44:30;11.50;68.60
148;DHT22;142;50.652;12.216;2022-11-04T06:47:01;11.50;68.60
148;DHT22;142;50.652;12.216;2022-11-04T06:49:29;11.50;68.50
148;DHT22;142;50.652;12.216;2022-11-04T06:51:56;11.50;68.40
148;DHT22;142;50.652;12.216;2022-11-04T06:54:23;11.50;68.50
148;DHT22;142;50.652;12.216;2022-11-04T06:56:50;11.50;68.40
148;DHT22;142;50.652;12.216;2022-11-04T06:59:21;11.50;68.40
148;DHT22;142;50.652;12.216;2022-11-04T07:01:48;11.50;68.30
148;DHT22;142;50.652;12.216;2022-11-04T07:04:18;11.40;68.20
148;DHT22;142;50.652;12.216;2022-11-04T07:06:45;11.40;68.30
148;DHT22;142;50.652;12.216;2022-11-04T07:09:14;11.30;68.30
148;DHT22;142;50.652;12.216;2022-11-04T07:11:44;11.30;68.60
148;DHT22;142;50.652;12.216;2022-11-04T07:14:12;11.50;69.00
148;DHT22;142;50.652;12.216;2022-11-04T07:16:39;11.50;69.10
148;DHT22;142;50.652;12.216;2022-11-04T07:19:08;11.50;69.30
148;DHT22;142;50.652;12.216;2022-11-04T07:21:37;11.50;69.30
148;DHT22;142;50.652;12.216;2022-11-04T07:24:05;11.60;69.40
148;DHT22;142;50.652;12.216;2022-11-04T07:26:32;11.60;69.20
148;DHT22;142;50.652;12.216;2022-11-04T07:28:59;11.60;69.30
148;DHT22;142;50.652;12.216;2022-11-04T07:31:26;11.50;69.20
148;DHT22;142;50.652;12.216;2022-11-04T07:33:53;11.50;69.30
148;DHT22;142;50.652;12.216;2022-11-04T07:36:20;11.50;69.50
148;DHT22;142;50.652;12.216;2022-11-04T07:38:48;11.60;69.50
148;DHT22;142;50.652;12.216;2022-11-04T07:41:17;11.50;69.50
148;DHT22;142;50.652;12.216;2022-11-04T07:43:47;11.50;69.40
148;DHT22;142;50.652;12.216;2022-11-04T07:46:15;11.50;69.60
148;DHT22;142;50.652;12.216;2022-11-04T07:48:43;11.50;69.80
148;DHT22;142;50.652;12.216;2022-11-04T07:51:13;11.50;69.90
148;DHT22;142;50.652;12.216;2022-11-04T07:53:41;11.60;70.00
148;DHT22;142;50.652;12.216;2022-11-04T07:56:11;11.60;70.00
148;DHT22;142;50.652;12.216;2022-11-04T07:58:39;11.60;69.90
148;DHT22;142;50.652;12.216;2022-11-04T08:01:09;11.50;69.90
148;DHT22;142;50.652;12.216;2022-11-04T08:03:36;11.50;69.90
148;DHT22;142;50.652;12.216;2022-11-04T08:06:05;11.50;70.00
148;DHT22;142;50.652;12.216;2022-11-04T08:08:33;11.50;70.00
148;DHT22;142;50.652;12.216;2022-11-04T08:11:02;11.60;70.10
148;DHT22;142;50.652;12.216;2022-11-04T08:13:33;11.60;70.20
148;DHT22;142;50.652;12.216;2022-11-04T08:16:02;11.60;70.30
148;DHT22;142;50.652;12.216;2022-11-04T08:18:30;11.60;70.10
148;DHT22;142;50.652;12.216;2022-11-04T08:20:57;11.60;69.90
148;DHT22;142;50.652;12.216;2022-11-04T08:23:24;11.70;70.10
148;DHT22;142;50.652;12.216;2022-11-04T08:25:51;11.70;70.00
148;DHT22;142;50.652;12.216;2022-11-04T08:28:18;11.70;69.80
148;DHT22;142;50.652;12.216;2022-11-04T08:30:54;11.60;69.00
148;DHT22;142;50.652;12.216;2022-11-04T08:33:22;11.60;68.80
148;DHT22;142;50.652;12.216;2022-11-04T08:35:50;11.60;68.70
148;DHT22;142;50.652;12.216;2022-11-04T08:38:17;11.70;68.60
148;DHT22;142;50.652;12.216;2022-11-04T08:40:44;11.70;68.20
148;DHT22;142;50.652;12.216;2022-11-04T08:43:11;11.80;68.20
148;DHT22;142;50.652;12.216;2022-11-04T08:45:39;11.80;68.10
148;DHT22;142;50.652;12.216;2022-11-04T08:48:08;11.80;68.00
148;DHT22;142;50.652;12.216;2022-11-04T08:50:35;11.90;67.70
148;DHT22;142;50.652;12.216;2022-11-04T08:53:03;11.90;67.60
148;DHT22;142;50.652;12.216;2022-11-04T08:55:31;11.90;67.30
148;DHT22;142;50.652;12.216;2022-11-04T08:57:58;11.90;67.10
148;DHT22;142;50.652;12.216;2022-11-04T09:00:25;11.90;67.10
148;DHT22;142;50.652;12.216;2022-11-04T09:02:52;11.90;67.10
148;DHT22;142;50.652;12.216;2022-11-04T09:05:21;11.90;66.70
148;DHT22;142;50.652;12.216;2022-11-04T09:07:48;11.90;66.30
148;DHT22;142;50.652;12.216;2022-11-04T09:10:15;11.80;65.70
148;DHT22;142;50.652;12.216;2022-11-04T09:12:43;11.80;65.70
148;DHT22;142;50.652;12.216;2022-11-04T09:15:10;11.70;65.60
148;DHT22;142;50.652;12.216;2022-11-04T09:17:38;11.70;65.90
148;DHT22;142;50.652;12.216;2022-11-04T09:20:05;11.70;65.90
148;DHT22;142;50.652;12.216;2022-11-04T09:22:34;11.70;65.80
148;DHT22;142;50.652;12.216;2022-11-04T09:25:01;11.70;65.80
148;DHT22;142;50.652;12.216;2022-11-04T09:27:28;11.70;66.10
148;DHT22;142;50.652;12.216;2022-11-04T09:29:55;11.70;66.20
148;DHT22;142;50.652;12.216;2022-11-04T09:32:23;11.70;66.00
148;DHT22;142;50.652;12.216;2022-11-04T09:34:50;11.70;66.00
148;DHT22;142;50.652;12.216;2022-11-04T09:37:17;11.70;66.00
148;DHT22;142;50.652;12.216;2022-11-04T09:39:45;11.70;66.10
148;DHT22;142;50.652;12.216;2022-11-04T09:42:36;11.60;66.10
148;DHT22;142;50.652;12.216;2022-11-04T09:45:10;11.70;66.30
148;DHT22;142;50.652;12.216;2022-11-04T09:47:39;11.70;66.10
148;DHT22;142;50.652;12.216;2022-11-04T09:50:09;11.70;65.80
148;DHT22;142;50.652;12.216;2022-11-04T09:52:46;11.70;65.60
148;DHT22;142;50.652;12.216;2022-11-04T09:55:18;11.70;65.60
148;DHT22;142;50.652;12.216;2022-11-04T09:57:51;11.70;65.60
148;DHT22;142;50.652;12.216;2022-11-04T10:00:20;11.60;65.20
148;DHT22;142;50.652;12.216;2022-11-04T10:02:56;11.60;65.00
148;DHT22;142;50.652;12.216;2022-11-04T10:05:36;11.60;64.80
148;DHT22;142;50.652;12.216;2022-11-04T10:08:27;11.70;64.70
148;DHT22;142;50.652;12.216;2022-11-04T10:11:03;11.80;64.50
148;DHT22;142;50.652;12.216;2022-11-04T10:13:45;11.70;63.90
148;DHT22;142;50.652;12.216;2022-11-04T10:16:26;11.70;64.00
148;DHT22;142;50.652;12.216;2022-11-04T10:19:16;11.70;63.10
148;DHT22;142;50.652;12.216;2022-11-04T10:21:56;11.60;62.80
148;DHT22;142;50.652;12.216;2022-11-04T10:24:34;11.60;63.20
148;DHT22;142;50.652;12.216;2022-11-04T10:27:13;11.70;63.10
148;DHT22;142;50.652;12.216;2022-11-04T10:29:43;11.70;62.60
148;DHT22;142;50.652;12.216;2022-11-04T10:32:14;11.70;62.50
148;DHT22;142;50.652;12.216;2022-11-04T10:34:45;11.70;62.80
148;DHT22;142;50.652;12.216;2022-11-04T10:37:14;11.70;62.80
148;DHT22;142;50.652;12.216;2022-11-04T10:39:43;11.60;62.90
148;DHT22;142;50.652;12.216;2022-11-04T10:42:13;11.60;62.40
148;DHT22;142;50.652;12.216;2022-11-04T10:44:41;11.60;62.50
148;DHT22;142;50.652;12.216;2022-11-04T10:47:17;11.60;62.50
148;DHT22;142;50.652;12.216;2022-11-04T10:53:07;11.40;61.70
148;DHT22;142;50.652;12.216;2022-11-04T10:55:40;11.40;61.10
148;DHT22;142;50.652;12.216;2022-11-04T10:58:16;11.50;61.20
148;DHT22;142;50.652;12.216;2022-11-04T11:00:44;11.50;60.90
148;DHT22;142;50.652;12.216;2022-11-04T11:03:35;11.50;60.60
148;DHT22;142;50.652;12.216;2022-11-04T11:06:21;11.60;60.80
148;DHT22;142;50.652;12.216;2022-11-04T11:08:50;11.70;60.80
148;DHT22;142;50.652;12.216;2022-11-04T11:11:37;11.80;60.70
148;DHT22;142;50.652;12.216;2022-11-04T11:14:18;11.90;61.00
148;DHT22;142;50.652;12.216;2022-11-04T11:16:45;12.00;60.80
148;DHT22;142;50.652;12.216;2022-11-04T11:19:15;12.00;60.20
148;DHT22;142;50.652;12.216;2022-11-04T11:21:44;11.90;60.00
148;DHT22;142;50.652;12.216;2022-11-04T11:24:16;11.90;60.40
148;DHT22;142;50.652;12.216;2022-11-04T11:26:44;12.00;60.20
148;DHT22;142;50.652;12.216;2022-11-04T11:29:22;11.90;59.70
148;DHT22;142;50.652;12.216;2022-11-04T11:31:52;11.90;60.00
148;DHT22;142;50.652;12.216;2022-11-04T11:34:23;11.90;59.70
148;DHT22;142;50.652;12.216;2022-11-04T11:36:53;11.90;59.50
148;DHT22;142;50.652;12.216;2022-11-04T11:39:22;12.00;59.40
148;DHT22;142;50.652;12.216;2022-11-04T11:41:55;12.00;59.40
148;DHT22;142;50.652;12.216;2022-11-04T11:44:26;12.00;58.90
148;DHT22;142;50.652;12.216;2022-11-04T11:46:58;12.10;59.30
148;DHT22;142;50.652;12.216;2022-11-04T11:49:28;12.20;59.30
148;DHT22;142;50.652;12.216;2022-11-04T11:52:15;12.20;59.10
148;DHT22;142;50.652;12.216;2022-11-04T11:54:42;12.30;58.90
148;DHT22;142;50.652;12.216;2022-11-04T11:57:25;12.40;58.40
148;DHT22;142;50.652;12.216;2022-11-04T12:00:01;12.30;57.80
148;DHT22;142;50.652;12.216;2022-11-04T12:02:39;12.40;58.10
148;DHT22;142;50.652;12.216;2022-11-04T12:05:09;12.40;58.30
148;DHT22;142;50.652;12.216;2022-11-04T12:07:40;12.30;58.50
148;DHT22;142;50.652;12.216;2022-11-04T12:10:17;12.30;58.90
148;DHT22;142;50.652;12.216;2022-11-04T12:12:58;12.40;58.70
148;DHT22;142;50.652;12.216;2022-11-04T12:15:41;12.40;58.70
148;DHT22;142;50.652;12.216;2022-11-04T12:18:31;12.20;58.00
148;DHT22;142;50.652;12.216;2022-11-04T12:21:02;12.20;57.40
148;DHT22;142;50.652;12.216;2022-11-04T12:23:38;12.30;57.60
148;DHT22;142;50.652;12.216;2022-11-04T12:26:15;12.40;57.50
148;DHT22;142;50.652;12.216;2022-11-04T12:28:54;12.40;56.50
148;DHT22;142;50.652;12.216;2022-11-04T12:31:31;12.40;56.20
148;DHT22;142;50.652;12.216;2022-11-04T12:34:08;12.40;56.60
148;DHT22;142;50.652;12.216;2022-11-04T12:36:58;12.50;57.30
148;DHT22;142;50.652;12.216;2022-11-04T12:42:23;12.40;56.30
148;DHT22;142;50.652;12.216;2022-11-04T12:45:05;12.40;56.80
148;DHT22;142;50.652;12.216;2022-11-04T12:47:37;12.40;56.50
148;DHT22;142;50.652;12.216;2022-11-04T12:50:35;12.30;55.90
148;DHT22;142;50.652;12.216;2022-11-04T12:53:25;12.40;56.20
148;DHT22;142;50.652;12.216;2022-11-04T12:56:04;12.30;55.60
148;DHT22;142;50.652;12.216;2022-11-04T12:58:46;12.30;55.60
148;DHT22;142;50.652;12.216;2022-11-04T13:01:22;12.30;56.30
148;DHT22;142;50.652;12.216;2022-11-04T13:03:55;12.30;55.90
148;DHT22;142;50.652;12.216;2022-11-04T13:06:27;12.30;56.30
148;DHT22;142;50.652;12.216;2022-11-04T13:09:00;12.40;55.60
148;DHT22;142;50.652;12.216;2022-11-04T13:11:32;12.20;54.70
148;DHT22;142;50.652;12.216;2022-11-04T13:14:03;12.20;54.50
148;DHT22;142;50.652;12.216;2022-11-04T13:16:35;12.30;55.50
148;DHT22;142;50.652;12.216;2022-11-04T13:19:13;12.30;55.90
148;DHT22;142;50.652;12.216;2022-11-04T13:21:42;12.40;56.20
148;DHT22;142;50.652;12.216;2022-11-04T13:24:14;12.50;56.30
148;DHT22;142;50.652;12.216;2022-11-04T13:26:43;12.40;55.60
148;DHT22;142;50.652;12.216;2022-11-04T13:29:13;12.40;55.50
148;DHT22;142;50.652;12.216;2022-11-04T13:31:50;12.40;56.00
148;DHT22;142;50.652;12.216;2022-11-04T13:34:27;12.40;55.60
148;DHT22;142;50.652;12.216;2022-11-04T13:37:05;12.30;55.50
148;DHT22;142;50.652;12.216;2022-11-04T13:39:39;12.20;55.50
148;DHT22;142;50.652;12.216;2022-11-04T13:42:41;12.20;55.40
148;DHT22;142;50.652;12.216;2022-11-04T13:45:13;12.20;54.80
148;DHT22;142;50.652;12.216;2022-11-04T13:47:46;12.20;54.70
148;DHT22;142;50.652;12.216;2022-11-04T13:50:32;12.10;54.80
148;DHT22;142;50.652;12.216;2022-11-04T13:53:00;12.10;54.50
148;DHT22;142;50.652;12.216;2022-11-04T13:55:27;12.10;55.20
148;DHT22;142;50.652;12.216;2022-11-04T13:57:56;12.00;54.50
148;DHT22;142;50.652;12.216;2022-11-04T14:00:26;12.10;54.60
148;DHT22;142;50.652;12.216;2022-11-04T14:02:54;12.10;55.00
148;DHT22;142;50.652;12.216;2022-11-04T14:06:01;12.10;54.60
148;DHT22;142;50.652;12.216;2022-11-04T14:08:29;12.20;54.90
148;DHT22;142;50.652;12.216;2022-11-04T14:11:10;12.10;54.50
148;DHT22;142;50.652;12.216;2022-11-04T14:13:59;12.10;54.40
148;DHT22;142;50.652;12.216;2022-11-04T14:16:40;12.10;54.80
148;DHT22;142;50.652;12.216;2022-11-04T14:22:32;12.10;55.00
148;DHT22;142;50.652;12.216;2022-11-04T14:25:02;12.00;55.30
148;DHT22;142;50.652;12.216;2022-11-04T14:27:36;12.10;55.50
148;DHT22;142;50.652;12.216;2022-11-04T14:30:05;12.10;55.30
148;DHT22;142;50.652;12.216;2022-11-04T14:32:38;12.00;54.80
148;DHT22;142;50.652;12.216;2022-11-04T14:35:14;12.00;55.10
148;DHT22;142;50.652;12.216;2022-11-04T14:37:51;11.90;55.10
148;DHT22;142;50.652;12.216;2022-11-04T14:40:24;11.90;55.00
148;DHT22;142;50.652;12.216;2022-11-04T14:42:54;11.80;55.40
148;DHT22;142;50.652;12.216;2022-11-04T14:45:23;11.80;55.80
148;DHT22;142;50.652;12.216;2022-11-04T14:47:53;11.70;56.10
148;DHT22;142;50.652;12.216;2022-11-04T14:50:24;11.80;56.30
148;DHT22;142;50.652;12.216;2022-11-04T14:52:55;11.80;56.40
148;DHT22;142;50.652;12.216;2022-11-04T14:55:25;11.80;56.50
148;DHT22;142;50.652;12.216;2022-11-04T14:57:55;11.80;56.50
148;DHT22;142;50.652;12.216;2022-11-04T15:00:31;11.80;56.60
148;DHT22;142;50.652;12.216;2022-11-04T15:03:11;11.70;56.80
148;DHT22;142;50.652;12.216;2022-11-04T15:05:44;11.60;56.90
148;DHT22;142;50.652;12.216;2022-11-04T15:08:27;11.60;57.20
148;DHT22;142;50.652;12.216;2022-11-04T15:11:03;11.70;57.30
148;DHT22;142;50.652;12.216;2022-11-04T15:13:35;11.70;57.20
148;DHT22;142;50.652;12.216;2022-11-04T15:16:07;11.70;56.90
148;DHT22;142;50.652;12.216;2022-11-04T15:18:36;11.60;57.00
148;DHT22;142;50.652;12.216;2022-11-04T15:21:06;11.60;56.90
148;DHT22;142;50.652;12.216;2022-11-04T15:23:40;11.60;56.90
148;DHT22;142;50.652;12.216;2022-11-04T15:26:20;11.50;56.90
148;DHT22;142;50.652;12.216;2022-11-04T15:28:50;11.50;57.20
148;DHT22;142;50.652;12.216;2022-11-04T15:31:20;11.50;57.80
148;DHT22;142;50.652;12.216;2022-11-04T15:33:49;11.50;58.10
148;DHT22;142;50.652;12.216;2022-11-04T15:36:19;11.50;58.30
148;DHT22;142;50.652;12.216;2022-11-04T15:38:54;11.40;58.40
148;DHT22;142;50.652;12.216;2022-11-04T15:41:24;11.40;58.70
148;DHT22;142;50.652;12.216;2022-11-04T15:44:15;11.40;58.70
148;DHT22;142;50.652;12.216;2022-11-04T15:46:48;11.40;59.10
148;DHT22;142;50.652;12.216;2022-11-04T15:49:21;11.30;59.00
148;DHT22;142;50.652;12.216;2022-11-04T15:51:51;11.30;59.40
148;DHT22;142;50.652;12.216;2022-11-04T15:54:22;11.20;59.80
148;DHT22;142;50.652;12.216;2022-11-04T15:56:52;11.10;59.60
148;DHT22;142;50.652;12.216;2022-11-04T15:59:23;11.00;59.70
148;DHT22;142;50.652;12.216;2022-11-04T16:01:52;11.00;60.00
148;DHT22;142;50.652;12.216;2022-11-04T16:04:21;10.90;60.40
148;DHT22;142;50.652;12.216;2022-11-04T16:09:50;10.90;60.80
148;DHT22;142;50.652;12.216;2022-11-04T16:12:26;10.90;60.70
148;DHT22;142;50.652;12.216;2022-11-04T16:14:54;10.90;60.90
148;DHT22;142;50.652;12.216;2022-11-04T16:17:22;10.90;61.10
148;DHT22;142;50.652;12.216;2022-11-04T16:19:53;10.90;61.10
148;DHT22;142;50.652;12.216;2022-11-04T16:22:27;10.90;61.30
148;DHT22;142;50.652;12.216;2022-11-04T16:25:00;10.90;61.30
148;DHT22;142;50.652;12.216;2022-11-04T16:27:30;10.90;61.20
148;DHT22;142;50.652;12.216;2022-11-04T16:30:05;10.90;61.50
148;DHT22;142;50.652;12.216;2022-11-04T16:32:40;10.80;61.40
148;DHT22;142;50.652;12.216;2022-11-04T16:35:13;10.70;61.50
148;DHT22;142;50.652;12.216;2022-11-04T16:37:40;10.70;61.90
148;DHT22;142;50.652;12.216;2022-11-04T16:40:10;10.80;61.90
148;DHT22;142;50.652;12.216;2022-11-04T16:42:37;10.80;62.00
148;DHT22;142;50.652;12.216;2022-11-04T16:45:06;10.80;62.00
148;DHT22;142;50.652;12.216;2022-11-04T16:47:36;10.80;62.00
148;DHT22;142;50.652;12.216;2022-11-04T16:50:12;10.70;61.70
148;DHT22;142;50.652;12.216;2022-11-04T16:52:39;10.60;61.90
148;DHT22;142;50.652;12.216;2022-11-04T16:55:11;10.60;62.10
148;DHT22;142;50.652;12.216;2022-11-04T16:57:39;10.50;62.30
148;DHT22;142;50.652;12.216;2022-11-04T17:00:07;10.50;62.40
148;DHT22;142;50.652;12.216;2022-11-04T17:02:35;10.50;62.70
148;DHT22;142;50.652;12.216;2022-11-04T17:05:06;10.50;62.70
148;DHT22;142;50.652;12.216;2022-11-04T17:07:36;10.40;62.80